RYR141K EGPH-LOWW
Flight info
| Callsign | RYR141K |
|---|---|
| Flight time | N/A |
| Altitude | 25000 |
| Route | TLA Y96 OTBUN/N0452F370 DCT ERKIT N110 DOLAS L603 LAMSO DCT PETIK DCT NOMKA DCT OMELO DCT EVIKU DCT BITSI DCT MIKOV MIKOV8W |
| Aircraft | A320/M-SDE3FGHIRWY/LB1 |
Departure
| Time | N/A |
|---|---|
| Airport | Edinburgh Airport (EGPH) |
Arrival
| Time | 2026-04-22 17:45 |
|---|---|
| Airport | Vienna International Airport (LOWW) |
| Time | Latitude | Longitude | Altitude | Speed | Heading |
|---|---|---|---|---|---|
| 2026-04-22 17:18 | 50.25213 | 14.84013 | 37249 ft | 409 kts | 133° |
| 2026-04-22 17:18 | 50.21134 | 14.90232 | 37254 ft | 410 kts | 133° |
| 2026-04-22 17:19 | 50.12934 | 15.02585 | 37245 ft | 410 kts | 133° |
| 2026-04-22 17:20 | 50.04741 | 15.14940 | 37236 ft | 410 kts | 133° |
| 2026-04-22 17:21 | 49.98592 | 15.24182 | 37231 ft | 410 kts | 133° |
| 2026-04-22 17:22 | 49.92460 | 15.33337 | 37220 ft | 410 kts | 134° |
| 2026-04-22 17:23 | 49.86272 | 15.42555 | 36977 ft | 422 kts | 134° |
| 2026-04-22 17:23 | 49.81891 | 15.49081 | 36476 ft | 451 kts | 134° |
| 2026-04-22 17:23 | 49.79594 | 15.52491 | 36227 ft | 464 kts | 134° |
| 2026-04-22 17:24 | 49.77206 | 15.56025 | 35980 ft | 472 kts | 134° |
| 2026-04-22 17:24 | 49.74856 | 15.59490 | 35739 ft | 475 kts | 134° |
| 2026-04-22 17:24 | 49.72461 | 15.63017 | 35499 ft | 476 kts | 134° |
| 2026-04-22 17:24 | 49.70067 | 15.66535 | 35264 ft | 473 kts | 134° |
| 2026-04-22 17:25 | 49.67690 | 15.70027 | 35032 ft | 470 kts | 134° |
| 2026-04-22 17:25 | 49.65322 | 15.73502 | 34795 ft | 469 kts | 134° |
| 2026-04-22 17:25 | 49.62959 | 15.76966 | 34546 ft | 468 kts | 134° |
| 2026-04-22 17:25 | 49.60599 | 15.80419 | 33974 ft | 467 kts | 134° |
| 2026-04-22 17:26 | 49.58248 | 15.83856 | 33457 ft | 465 kts | 134° |
| 2026-04-22 17:26 | 49.55902 | 15.87284 | 32938 ft | 464 kts | 133° |
| 2026-04-22 17:26 | 49.53567 | 15.90694 | 32433 ft | 462 kts | 133° |
| 2026-04-22 17:26 | 49.51235 | 15.94096 | 31927 ft | 461 kts | 133° |
| 2026-04-22 17:27 | 49.48908 | 15.97487 | 31428 ft | 460 kts | 133° |
| 2026-04-22 17:27 | 49.46584 | 16.00865 | 30925 ft | 459 kts | 133° |
| 2026-04-22 17:27 | 49.44265 | 16.04228 | 30448 ft | 458 kts | 133° |
| 2026-04-22 17:27 | 49.41952 | 16.07575 | 29918 ft | 456 kts | 133° |
| 2026-04-22 17:28 | 49.39640 | 16.10919 | 29454 ft | 457 kts | 133° |
| 2026-04-22 17:28 | 49.37322 | 16.14269 | 28986 ft | 458 kts | 133° |
| 2026-04-22 17:28 | 49.34993 | 16.17620 | 28535 ft | 460 kts | 134° |
| 2026-04-22 17:28 | 49.32655 | 16.20976 | 28071 ft | 461 kts | 134° |
| 2026-04-22 17:29 | 49.30117 | 16.24021 | 27586 ft | 467 kts | 145° |
| 2026-04-22 17:29 | 49.27220 | 16.26350 | 27042 ft | 472 kts | 150° |
| 2026-04-22 17:29 | 49.24261 | 16.28561 | 26474 ft | 474 kts | 151° |
| 2026-04-22 17:29 | 49.21281 | 16.30759 | 25908 ft | 477 kts | 151° |
| 2026-04-22 17:30 | 49.18291 | 16.32952 | 25309 ft | 479 kts | 152° |
| 2026-04-22 17:30 | 49.15279 | 16.35159 | 24688 ft | 481 kts | 152° |
| 2026-04-22 17:30 | 49.12255 | 16.37376 | 24066 ft | 483 kts | 152° |
| 2026-04-22 17:30 | 49.09224 | 16.39604 | 23368 ft | 482 kts | 152° |
| 2026-04-22 17:31 | 49.06216 | 16.41817 | 22740 ft | 480 kts | 152° |
| 2026-04-22 17:31 | 49.03219 | 16.44021 | 22124 ft | 476 kts | 152° |
| 2026-04-22 17:31 | 49.00244 | 16.46209 | 21532 ft | 473 kts | 152° |
| 2026-04-22 17:31 | 48.97289 | 16.48378 | 20936 ft | 470 kts | 152° |
| 2026-04-22 17:32 | 48.94322 | 16.50434 | 20463 ft | 468 kts | 158° |
| 2026-04-22 17:32 | 48.91157 | 16.51632 | 20236 ft | 469 kts | 167° |
| 2026-04-22 17:32 | 48.88004 | 16.52535 | 19977 ft | 466 kts | 168° |
| 2026-04-22 17:32 | 48.84822 | 16.53432 | 19725 ft | 464 kts | 168° |
| 2026-04-22 17:33 | 48.82675 | 16.54028 | 19558 ft | 463 kts | 168° |
| 2026-04-22 17:33 | 48.78483 | 16.55174 | 19227 ft | 461 kts | 168° |
| 2026-04-22 17:33 | 48.75369 | 16.56019 | 19002 ft | 451 kts | 168° |
| 2026-04-22 17:33 | 48.72230 | 16.56874 | 18811 ft | 460 kts | 168° |
| 2026-04-22 17:34 | 48.69081 | 16.57739 | 18617 ft | 460 kts | 168° |
| 2026-04-22 17:34 | 48.65930 | 16.58604 | 18412 ft | 460 kts | 168° |
| 2026-04-22 17:34 | 48.62803 | 16.59458 | 18112 ft | 450 kts | 168° |
| 2026-04-22 17:34 | 48.59754 | 16.60289 | 17404 ft | 442 kts | 168° |
| 2026-04-22 17:35 | 48.56748 | 16.61109 | 16655 ft | 437 kts | 168° |
| 2026-04-22 17:35 | 48.53773 | 16.61921 | 15941 ft | 432 kts | 168° |
| 2026-04-22 17:35 | 48.50831 | 16.62724 | 15231 ft | 427 kts | 168° |
| 2026-04-22 17:35 | 48.47919 | 16.63520 | 14535 ft | 423 kts | 168° |
| 2026-04-22 17:36 | 48.45037 | 16.64306 | 13860 ft | 420 kts | 168° |
| 2026-04-22 17:36 | 48.42179 | 16.65084 | 13127 ft | 415 kts | 168° |
| 2026-04-22 17:36 | 48.39348 | 16.65853 | 12380 ft | 411 kts | 169° |
| 2026-04-22 17:36 | 48.36550 | 16.66614 | 11653 ft | 406 kts | 169° |
| 2026-04-22 17:37 | 48.33795 | 16.67361 | 10807 ft | 400 kts | 169° |
| 2026-04-22 17:37 | 48.31085 | 16.68092 | 9628 ft | 397 kts | 169° |
| 2026-04-22 17:37 | 48.28381 | 16.68821 | 8825 ft | 392 kts | 169° |
| 2026-04-22 17:37 | 48.25708 | 16.69542 | 8013 ft | 387 kts | 169° |
| 2026-04-22 17:38 | 48.23068 | 16.70254 | 7210 ft | 383 kts | 169° |
| 2026-04-22 17:38 | 48.20489 | 16.70948 | 6378 ft | 380 kts | 169° |
| 2026-04-22 17:38 | 48.17897 | 16.71644 | 5493 ft | 377 kts | 169° |
| 2026-04-22 17:38 | 48.15403 | 16.72315 | 4632 ft | 373 kts | 169° |
| 2026-04-22 17:39 | 48.12876 | 16.72993 | 4086 ft | 361 kts | 169° |
| 2026-04-22 17:39 | 48.10461 | 16.73640 | 3772 ft | 345 kts | 169° |
| 2026-04-22 17:39 | 48.05996 | 16.74480 | 3158 ft | 302 kts | 188° |
| 2026-04-22 17:40 | 48.04022 | 16.73856 | 3001 ft | 278 kts | 195° |
| 2026-04-22 17:40 | 48.02217 | 16.73170 | 3004 ft | 259 kts | 195° |
| 2026-04-22 17:40 | 48.00535 | 16.72521 | 3006 ft | 241 kts | 195° |
| 2026-04-22 17:40 | 47.98976 | 16.71796 | 3004 ft | 231 kts | 211° |
| 2026-04-22 17:41 | 47.97798 | 16.70220 | 2637 ft | 226 kts | 245° |
| 2026-04-22 17:41 | 47.97253 | 16.68165 | 2594 ft | 201 kts | 268° |
| 2026-04-22 17:41 | 47.97338 | 16.66178 | 2608 ft | 188 kts | 293° |
| 2026-04-22 17:41 | 47.97940 | 16.64521 | 2611 ft | 177 kts | 316° |
| 2026-04-22 17:42 | 47.98817 | 16.63470 | 2603 ft | 150 kts | 335° |
| 2026-04-22 17:42 | 47.99749 | 16.62978 | 2487 ft | 138 kts | 347° |
| 2026-04-22 17:42 | 48.00356 | 16.62722 | 2387 ft | 136 kts | 347° |
| 2026-04-22 17:42 | 48.01587 | 16.62204 | 2168 ft | 144 kts | 347° |
| 2026-04-22 17:43 | 48.02564 | 16.61792 | 1966 ft | 147 kts | 346° |
| 2026-04-22 17:43 | 48.03548 | 16.61377 | 1770 ft | 146 kts | 346° |
| 2026-04-22 17:43 | 48.04498 | 16.60984 | 1495 ft | 138 kts | 347° |
| 2026-04-22 17:43 | 48.05418 | 16.60621 | 1214 ft | 136 kts | 343° |
| 2026-04-22 17:44 | 48.06317 | 16.60218 | 1093 ft | 134 kts | 344° |
| 2026-04-22 17:44 | 48.07213 | 16.59836 | 936 ft | 132 kts | 343° |
| 2026-04-22 17:44 | 48.08097 | 16.59465 | 763 ft | 135 kts | 343° |
| 2026-04-22 17:44 | 48.08992 | 16.59079 | 638 ft | 130 kts | 344° |
| 2026-04-22 17:45 | 48.09768 | 16.58752 | 616 ft | 101 kts | 344° |
| 2026-04-22 17:45 | 48.10369 | 16.58500 | 612 ft | 81 kts | 344° |
| 2026-04-22 17:45 | 48.10771 | 16.58331 | 612 ft | 47 kts | 343° |
| 2026-04-22 17:45 | 48.10964 | 16.58217 | 615 ft | 20 kts | 325° |
| 2026-04-22 17:46 | 48.11037 | 16.58083 | 617 ft | 17 kts | 301° |
| 2026-04-22 17:46 | 48.11093 | 16.57915 | 616 ft | 20 kts | 296° |
| 2026-04-22 17:46 | 48.11159 | 16.57714 | 619 ft | 22 kts | 296° |
| 2026-04-22 17:46 | 48.11229 | 16.57502 | 614 ft | 24 kts | 297° |
| 2026-04-22 17:47 | 48.11302 | 16.57274 | 617 ft | 25 kts | 295° |
| 2026-04-22 17:47 | 48.11379 | 16.57036 | 619 ft | 26 kts | 297° |
| 2026-04-22 17:47 | 48.11460 | 16.56790 | 614 ft | 27 kts | 297° |
| 2026-04-22 17:47 | 48.11537 | 16.56545 | 617 ft | 22 kts | 296° |
| 2026-04-22 17:48 | 48.11583 | 16.56409 | 617 ft | 23 kts | 297° |
| 2026-04-22 17:48 | 48.11666 | 16.56156 | 617 ft | 20 kts | 297° |
| 2026-04-22 17:48 | 48.11731 | 16.55959 | 617 ft | 22 kts | 297° |
| 2026-04-22 17:48 | 48.11798 | 16.55754 | 614 ft | 22 kts | 295° |
| 2026-04-22 17:49 | 48.11859 | 16.55558 | 609 ft | 20 kts | 295° |
| 2026-04-22 17:49 | 48.11892 | 16.55454 | 614 ft | 7 kts | 296° |
| 2026-04-22 17:49 | 48.11938 | 16.55446 | 609 ft | 8 kts | 33° |
| 2026-04-22 17:49 | 48.11990 | 16.55493 | 610 ft | 10 kts | 27° |
| 2026-04-22 17:50 | 48.12045 | 16.55533 | 616 ft | 6 kts | 24° |
| 2026-04-22 17:50 | 48.12077 | 16.55498 | 609 ft | 7 kts | 297° |
| 2026-04-22 17:50 | 48.12085 | 16.55475 | 618 ft | 0 kts | 295° |